createdAt,value
2018-06-09T00:00:47.958Z,22.17
2018-06-09T00:01:56.820Z,22.28
2018-06-09T00:03:05.683Z,22.25
2018-06-09T00:04:14.551Z,22.12
2018-06-09T00:05:23.515Z,22.06
2018-06-09T00:07:02.130Z,22.1
2018-06-09T00:08:10.993Z,22.14
2018-06-09T00:09:19.857Z,22.1
2018-06-09T00:10:28.722Z,22.12
2018-06-09T00:11:37.592Z,22.02
2018-06-09T00:12:46.786Z,22
2018-06-09T00:13:55.646Z,22
2018-06-09T00:15:04.511Z,21.99
2018-06-09T00:16:13.653Z,22.03
2018-06-09T00:17:22.793Z,22.02
2018-06-09T00:18:32.087Z,22.03
2018-06-09T00:19:40.951Z,22.1
2018-06-09T00:20:50.093Z,22.1
2018-06-09T00:21:58.958Z,22
2018-06-09T00:23:08.383Z,21.96
2018-06-09T00:24:17.596Z,22.09
2018-06-09T00:25:26.463Z,22.17
2018-06-09T00:26:35.333Z,22.1
2018-06-09T00:27:44.475Z,22.12
2018-06-09T00:28:53.337Z,22.06
2018-06-09T00:30:02.562Z,22.06
2018-06-09T00:31:11.703Z,22
2018-06-09T00:32:20.567Z,21.92
2018-06-09T00:33:29.436Z,21.94
2018-06-09T00:34:38.301Z,22.03
2018-06-09T00:35:47.326Z,21.9
2018-06-09T00:36:56.529Z,21.99
2018-06-09T00:38:05.397Z,21.99
2018-06-09T00:39:14.540Z,21.96
2018-06-09T00:40:23.400Z,21.98
2018-06-09T00:41:32.893Z,21.96
2018-06-09T00:42:41.758Z,21.92
2018-06-09T00:43:50.622Z,21.94
2018-06-09T00:44:59.484Z,21.92
2018-06-09T00:46:08.351Z,21.92
2018-06-09T00:47:17.568Z,21.91
2018-06-09T00:48:26.715Z,21.96
2018-06-09T00:49:35.577Z,22.02
2018-06-09T00:50:44.441Z,21.96
2018-06-09T00:51:53.306Z,21.91
2018-06-09T00:53:02.446Z,21.94
2018-06-09T00:54:11.310Z,21.84
2018-06-09T00:55:20.173Z,21.91
2018-06-09T00:56:29.318Z,21.88
2018-06-09T00:57:38.184Z,21.8
2018-06-09T00:58:47.376Z,21.8
2018-06-09T00:59:56.239Z,21.77
2018-06-09T01:01:05.103Z,21.75
2018-06-09T01:02:13.964Z,21.71
2018-06-09T01:03:22.830Z,21.8
2018-06-09T01:04:31.972Z,21.79
2018-06-09T01:05:40.834Z,21.75
2018-06-09T01:06:49.699Z,21.83
2018-06-09T01:07:59.112Z,21.79
2018-06-09T01:09:07.977Z,21.71
2018-06-09T01:10:16.993Z,21.72
2018-06-09T01:11:25.858Z,21.74
2018-06-09T01:12:34.724Z,21.72
2018-06-09T01:13:43.589Z,21.74
2018-06-09T01:14:52.452Z,21.71
2018-06-09T01:16:01.965Z,21.72
2018-06-09T01:17:11.105Z,21.79
2018-06-09T01:18:19.972Z,21.77
2018-06-09T01:19:28.839Z,21.71
2018-06-09T01:20:37.977Z,21.74
2018-06-09T01:21:47.274Z,21.69
2018-06-09T01:22:56.139Z,21.77
2018-06-09T01:24:05.003Z,21.64
2018-06-09T01:25:13.866Z,21.67
2018-06-09T01:26:22.730Z,21.62
2018-06-09T01:27:31.744Z,21.67
2018-06-09T01:28:40.607Z,21.86
2018-06-09T01:29:49.470Z,21.69
2018-06-09T01:30:58.333Z,21.69
2018-06-09T01:32:07.198Z,21.74
2018-06-09T01:33:16.215Z,21.72
2018-06-09T01:34:25.079Z,21.75
2018-06-09T01:35:34.497Z,21.72
2018-06-09T01:36:43.360Z,21.74
2018-06-09T01:37:52.222Z,21.65
2018-06-09T01:39:01.185Z,21.88
2018-06-09T01:40:10.050Z,21.77
2018-06-09T01:41:19.192Z,21.62
2018-06-09T01:42:28.057Z,21.67
2018-06-09T01:43:36.921Z,21.71
2018-06-09T01:44:45.933Z,21.65
2018-06-09T01:45:54.797Z,21.53
2018-06-09T01:47:03.660Z,21.56
2018-06-09T01:48:12.523Z,21.62
2018-06-09T01:49:21.385Z,21.58
2018-06-09T01:50:30.347Z,21.56
2018-06-09T01:51:39.213Z,21.47
2018-06-09T01:52:48.075Z,21.53
2018-06-09T01:53:56.937Z,21.52
2018-06-09T01:55:06.079Z,21.58
2018-06-09T01:56:15.373Z,21.52
2018-06-09T01:57:24.290Z,21.64
2018-06-09T01:58:33.158Z,21.54
2018-06-09T01:59:42.298Z,21.46
2018-06-09T02:00:51.161Z,21.61
2018-06-09T02:02:00.352Z,21.61
2018-06-09T02:03:09.218Z,21.59
2018-06-09T02:04:18.357Z,21.59
2018-06-09T02:05:27.216Z,21.53
2018-06-09T02:06:36.080Z,21.54
2018-06-09T02:07:44.945Z,21.56
2018-06-09T02:08:53.810Z,21.5
2018-06-09T02:10:02.674Z,21.46
2018-06-09T02:11:11.536Z,21.54
2018-06-09T02:12:20.397Z,21.44
2018-06-09T02:13:29.513Z,21.52
2018-06-09T02:14:38.373Z,21.52
2018-06-09T02:15:47.240Z,21.46
2018-06-09T02:16:56.103Z,21.44
2018-06-09T02:18:05.248Z,21.47
2018-06-09T02:19:14.387Z,21.43
2018-06-09T02:20:23.251Z,21.52
2018-06-09T02:21:32.390Z,21.47
2018-06-09T02:22:41.250Z,21.58
2018-06-09T02:23:50.111Z,21.46
2018-06-09T02:24:59.122Z,21.43
2018-06-09T02:26:08.265Z,21.4
2018-06-09T02:27:17.128Z,21.46
2018-06-09T02:28:25.996Z,21.42
2018-06-09T02:29:34.862Z,21.46
2018-06-09T02:30:43.826Z,21.43
2018-06-09T02:31:52.698Z,21.35
2018-06-09T02:33:01.839Z,21.35
2018-06-09T02:34:10.711Z,21.35
2018-06-09T02:35:19.862Z,21.35
2018-06-09T02:36:29.424Z,21.42
2018-06-09T02:37:38.293Z,21.38
2018-06-09T02:38:47.433Z,21.42
2018-06-09T02:39:56.571Z,21.42
2018-06-09T02:41:05.434Z,21.31
2018-06-09T02:42:14.451Z,21.25
2018-06-09T02:43:23.873Z,21.31
2018-06-09T02:44:33.020Z,21.29
2018-06-09T02:45:42.995Z,21.27
2018-06-09T02:46:51.867Z,21.27
2018-06-09T02:48:01.353Z,21.24
2018-06-09T02:49:10.218Z,21.22
2018-06-09T02:50:19.371Z,21.25
2018-06-09T02:51:28.236Z,21.35
2018-06-09T02:52:37.104Z,21.29
2018-06-09T02:53:46.573Z,21.25
2018-06-09T02:54:55.441Z,21.22
2018-06-09T02:56:05.444Z,21.38
2018-06-09T02:57:14.585Z,21.35
2018-06-09T02:58:23.456Z,21.29
2018-06-09T02:59:32.372Z,21.27
2018-06-09T03:00:41.515Z,21.27
2018-06-09T03:01:50.662Z,21.21
2018-06-09T03:03:00.362Z,21.21
2018-06-09T03:04:09.771Z,21.14
2018-06-09T03:05:19.114Z,21.16
2018-06-09T03:06:27.982Z,21.19
2018-06-09T03:07:37.406Z,21.14
2018-06-09T03:08:46.270Z,21.07
2018-06-09T03:09:55.416Z,21.1
2018-06-09T03:11:04.564Z,21.09
2018-06-09T03:12:13.708Z,21.13
2018-06-09T03:13:22.627Z,21.06
2018-06-09T03:14:31.494Z,21.07
2018-06-09T03:15:40.911Z,21.06
2018-06-09T03:16:49.780Z,21.1
2018-06-09T03:17:58.643Z,21.14
2018-06-09T03:19:07.784Z,21.19
2018-06-09T03:20:16.647Z,21.1
2018-06-09T03:21:25.786Z,21.13
2018-06-09T03:22:35.000Z,21.25
2018-06-09T03:23:43.866Z,21.12
2018-06-09T03:24:52.727Z,21.17
2018-06-09T03:26:01.591Z,21.19
2018-06-09T03:27:10.729Z,21.03
2018-06-09T03:28:19.593Z,21.06
2018-06-09T03:29:28.455Z,21.1
2018-06-09T03:30:37.614Z,21.04
2018-06-09T03:31:46.751Z,21.03
2018-06-09T03:32:55.615Z,21.04
2018-06-09T03:34:04.480Z,20.98
2018-06-09T03:35:13.340Z,21.07
2018-06-09T03:36:22.204Z,21.04
2018-06-09T03:37:31.069Z,21.06
2018-06-09T03:38:39.940Z,21.07
2018-06-09T03:39:48.855Z,21.06
2018-06-09T03:40:57.719Z,21.22
2018-06-09T03:42:07.418Z,21.12
2018-06-09T03:43:16.614Z,21.13
2018-06-09T03:44:25.424Z,21.09
2018-06-09T03:45:34.991Z,21.03
2018-06-09T03:46:44.127Z,21.07
2018-06-09T03:47:52.988Z,21.03
2018-06-09T03:49:01.857Z,21.03
2018-06-09T03:50:10.718Z,21.04
2018-06-09T03:51:19.960Z,20.92
2018-06-09T03:52:29.101Z,20.92
2018-06-09T03:53:37.968Z,20.92
2018-06-09T03:54:46.832Z,20.99
2018-06-09T03:55:55.691Z,20.97
2018-06-09T03:57:04.902Z,21.04
2018-06-09T03:58:13.764Z,20.98
2018-06-09T03:59:22.912Z,21.01
2018-06-09T04:00:31.776Z,20.92
2018-06-09T04:01:40.639Z,20.94
2018-06-09T04:02:49.552Z,21.06
2018-06-09T04:03:58.414Z,21.03
2018-06-09T04:05:07.282Z,21.03
2018-06-09T04:06:16.150Z,21.04
2018-06-09T04:07:25.065Z,20.91
2018-06-09T04:08:34.862Z,20.98
2018-06-09T04:09:43.728Z,21.03
2018-06-09T04:10:52.592Z,21.04
2018-06-09T04:12:01.456Z,20.97
2018-06-09T04:13:10.317Z,20.98
2018-06-09T04:14:19.530Z,20.91
2018-06-09T04:15:28.395Z,20.91
2018-06-09T04:16:37.259Z,20.91
2018-06-09T04:17:46.122Z,20.91
2018-06-09T04:18:55.263Z,20.88
2018-06-09T04:20:04.509Z,20.76
2018-06-09T04:21:13.658Z,20.87
2018-06-09T04:22:23.357Z,20.94
2018-06-09T04:23:32.219Z,20.92
2018-06-09T04:24:41.355Z,20.85
2018-06-09T04:25:50.848Z,20.95
2018-06-09T04:26:59.715Z,20.95
2018-06-09T04:28:08.582Z,20.99
2018-06-09T04:29:17.448Z,20.95
2018-06-09T04:30:26.311Z,20.98
2018-06-09T04:31:35.175Z,20.92
2018-06-09T04:32:44.045Z,20.87
2018-06-09T04:33:53.213Z,20.92
2018-06-09T04:35:02.048Z,20.88
2018-06-09T04:36:10.916Z,20.95
2018-06-09T04:37:19.932Z,20.97
2018-06-09T04:38:28.798Z,20.97
2018-06-09T04:39:38.222Z,20.91
2018-06-09T04:40:47.088Z,20.97
2018-06-09T04:41:55.950Z,20.91
2018-06-09T04:43:05.261Z,20.97
2018-06-09T04:44:14.402Z,20.99
2018-06-09T04:45:23.263Z,20.95
2018-06-09T04:46:32.129Z,21.01
2018-06-09T04:47:40.993Z,20.94
2018-06-09T04:48:49.857Z,21.06
2018-06-09T04:49:58.993Z,21.01
2018-06-09T04:51:07.857Z,20.94
2018-06-09T04:52:17.063Z,21.07
2018-06-09T04:53:25.872Z,21.06
2018-06-09T04:54:35.110Z,21.04
2018-06-09T04:55:43.986Z,21.03
2018-06-09T04:56:53.128Z,21.1
2018-06-09T04:58:01.991Z,20.97
2018-06-09T04:59:10.870Z,21.01
2018-06-09T05:00:20.391Z,21.1
2018-06-09T05:01:29.254Z,21.12
2018-06-09T05:02:38.119Z,21.12
2018-06-09T05:03:46.981Z,21.17
2018-06-09T05:04:56.121Z,21.28
2018-06-09T05:06:05.036Z,21.17
2018-06-09T05:07:13.925Z,21.28
2018-06-09T05:08:23.071Z,21.28
2018-06-09T05:09:31.935Z,21.31
2018-06-09T05:10:40.799Z,21.21
2018-06-09T05:11:50.287Z,21.29
2018-06-09T05:12:59.159Z,21.27
2018-06-09T05:14:08.313Z,21.35
2018-06-09T05:15:17.455Z,21.38
2018-06-09T05:16:26.320Z,21.34
2018-06-09T05:17:35.188Z,21.44
2018-06-09T05:18:44.052Z,21.4
2018-06-09T05:19:52.917Z,21.37
2018-06-09T05:21:01.781Z,21.42
2018-06-09T05:22:10.644Z,21.42
2018-06-09T05:23:19.510Z,21.52
2018-06-09T05:24:28.656Z,21.53
2018-06-09T05:25:37.517Z,21.61
2018-06-09T05:26:46.381Z,21.61
2018-06-09T05:27:55.248Z,21.61
2018-06-09T05:29:04.385Z,21.67
2018-06-09T05:30:14.141Z,21.68
2018-06-09T05:31:23.013Z,21.64
2018-06-09T05:32:31.877Z,21.71
2018-06-09T05:33:40.760Z,21.61
2018-06-09T05:34:50.350Z,21.65
2018-06-09T05:35:59.290Z,21.68
2018-06-09T05:37:08.439Z,21.74
2018-06-09T05:38:17.334Z,21.77
2018-06-09T05:39:26.196Z,21.77
2018-06-09T05:40:35.112Z,21.77
2018-06-09T05:41:43.979Z,21.8
2018-06-09T05:42:52.853Z,21.8
2018-06-09T05:44:01.720Z,21.84
2018-06-09T05:45:10.641Z,21.86
2018-06-09T05:46:19.891Z,21.91
2018-06-09T05:47:28.769Z,21.94
2018-06-09T05:48:37.678Z,22
2018-06-09T05:49:46.829Z,21.92
2018-06-09T05:50:56.018Z,21.98
2018-06-09T05:52:05.235Z,22.05
2018-06-09T05:53:14.100Z,22.12
2018-06-09T05:54:22.963Z,22.07
2018-06-09T05:55:32.113Z,22.02
2018-06-09T05:56:42.129Z,22.07
2018-06-09T05:57:51.152Z,22.22
2018-06-09T05:59:00.019Z,22.27
2018-06-09T06:00:08.884Z,22.14
2018-06-09T06:01:17.751Z,22.21
2018-06-09T06:02:26.612Z,22.22
2018-06-09T06:03:35.933Z,22.33
2018-06-09T06:04:44.801Z,22.37
2018-06-09T06:05:53.677Z,22.42
2018-06-09T06:07:02.542Z,22.47
2018-06-09T06:08:11.406Z,22.43
2018-06-09T06:09:20.551Z,22.47
2018-06-09T06:10:29.598Z,22.51
2018-06-09T06:11:38.556Z,22.55
2018-06-09T06:12:47.423Z,22.64
2018-06-09T06:13:56.571Z,22.58
2018-06-09T06:15:05.487Z,22.57
2018-06-09T06:16:14.603Z,22.67
2018-06-09T06:17:23.557Z,22.67
2018-06-09T06:18:32.420Z,22.67
2018-06-09T06:19:41.567Z,22.79
2018-06-09T06:20:50.790Z,22.77
2018-06-09T06:21:59.817Z,22.72
2018-06-09T06:23:09.142Z,22.88
2018-06-09T06:24:18.432Z,22.79
2018-06-09T06:25:27.532Z,22.79
2018-06-09T06:26:36.995Z,22.79
2018-06-09T06:27:46.134Z,22.86
2018-06-09T06:28:55.202Z,22.86
2018-06-09T06:30:04.159Z,22.86
2018-06-09T06:31:13.025Z,22.82
2018-06-09T06:32:22.042Z,22.9
2018-06-09T06:33:30.908Z,22.9
2018-06-09T06:34:39.777Z,22.82
2018-06-09T06:35:48.918Z,22.83
2018-06-09T06:36:58.487Z,22.88
2018-06-09T06:38:07.737Z,22.91
2018-06-09T06:39:17.166Z,22.95
2018-06-09T06:40:26.032Z,22.88
2018-06-09T06:41:34.900Z,22.92
2018-06-09T06:42:43.767Z,22.92
2018-06-09T06:43:52.633Z,23.04
2018-06-09T06:45:01.585Z,23.12
2018-06-09T06:46:10.786Z,23.05
2018-06-09T06:47:20.005Z,23.01
2018-06-09T06:48:29.480Z,23.01
2018-06-09T06:49:38.348Z,23.07
2018-06-09T06:50:47.213Z,23.12
2018-06-09T06:51:56.079Z,23.16
2018-06-09T06:53:04.944Z,23.15
2018-06-09T06:54:13.810Z,23.19
2018-06-09T06:55:22.675Z,23.28
2018-06-09T06:56:31.833Z,23.25
2018-06-09T06:57:41.024Z,23.22
2018-06-09T06:58:49.924Z,23.28
2018-06-09T06:59:58.803Z,23.38
2018-06-09T07:01:07.726Z,23.32
2018-06-09T07:02:16.593Z,23.39
2018-06-09T07:03:25.461Z,23.38
2018-06-09T07:04:34.328Z,23.48
2018-06-09T07:05:43.473Z,23.53
2018-06-09T07:06:52.341Z,23.55
2018-06-09T07:08:01.284Z,23.57
2018-06-09T07:09:10.078Z,23.6
2018-06-09T07:10:18.940Z,23.57
2018-06-09T07:11:28.082Z,23.58
2018-06-09T07:12:37.300Z,23.58
2018-06-09T07:13:46.169Z,23.54
2018-06-09T07:14:55.037Z,23.6
2018-06-09T07:16:03.905Z,23.66
2018-06-09T07:17:13.323Z,23.63
2018-06-09T07:18:22.191Z,23.63
2018-06-09T07:19:31.067Z,23.69
2018-06-09T07:20:39.936Z,23.68
2018-06-09T07:21:48.810Z,23.7
2018-06-09T07:22:57.962Z,23.76
2018-06-09T07:24:06.831Z,23.75
2018-06-09T07:25:15.695Z,23.79
2018-06-09T07:26:24.841Z,23.9
2018-06-09T07:27:33.703Z,23.88
2018-06-09T07:28:42.570Z,23.94
2018-06-09T07:29:51.686Z,23.91
2018-06-09T07:31:00.572Z,23.98
2018-06-09T07:32:09.977Z,24.05
2018-06-09T07:33:18.844Z,23.94
2018-06-09T07:34:27.989Z,24.05
2018-06-09T07:35:37.003Z,24.06
2018-06-09T07:36:45.870Z,24.06
2018-06-09T07:37:55.020Z,24.06
2018-06-09T07:39:04.165Z,24.08
2018-06-09T07:40:13.030Z,24.06
2018-06-09T07:41:22.098Z,24.12
2018-06-09T07:42:30.968Z,24.18
2018-06-09T07:43:40.113Z,24.21
2018-06-09T07:44:49.262Z,24.12
2018-06-09T07:45:58.229Z,24.13
2018-06-09T07:47:07.376Z,24.13
2018-06-09T07:48:16.243Z,24.18
2018-06-09T07:49:25.389Z,24.18
2018-06-09T07:50:34.277Z,24.31
2018-06-09T07:51:43.146Z,24.34
2018-06-09T07:52:52.015Z,24.35
2018-06-09T07:54:01.477Z,24.39
2018-06-09T07:55:11.115Z,24.5
2018-06-09T07:56:21.026Z,24.53
2018-06-09T07:57:31.271Z,24.55
2018-06-09T07:58:40.744Z,24.5
2018-06-09T07:59:50.408Z,24.61
2018-06-09T08:01:00.036Z,24.64
2018-06-09T08:02:09.294Z,24.69
2018-06-09T08:03:19.545Z,24.77
2018-06-09T08:04:29.799Z,24.69
2018-06-09T08:05:39.482Z,24.71
2018-06-09T08:06:48.381Z,24.78
2018-06-09T08:07:57.956Z,24.73
2018-06-09T08:09:07.101Z,24.84
2018-06-09T08:10:15.970Z,24.85
2018-06-09T08:11:24.839Z,24.78
2018-06-09T08:12:33.707Z,24.78
2018-06-09T08:13:42.852Z,24.81
2018-06-09T08:14:51.718Z,24.9
2018-06-09T08:16:00.864Z,24.91
2018-06-09T08:17:10.012Z,24.84
2018-06-09T08:18:19.157Z,24.8
2018-06-09T08:19:28.063Z,24.9
2018-06-09T08:20:37.293Z,24.85
2018-06-09T08:21:46.440Z,24.88
2018-06-09T08:22:55.315Z,24.91
2018-06-09T08:24:04.281Z,24.91
2018-06-09T08:25:13.151Z,24.93
2018-06-09T08:26:22.030Z,24.85
2018-06-09T08:27:30.899Z,24.95
2018-06-09T08:28:39.769Z,25.06
2018-06-09T08:29:48.752Z,25.06
2018-06-09T08:30:57.608Z,25.13
2018-06-09T08:32:06.760Z,25.03
2018-06-09T08:33:15.630Z,25.15
2018-06-09T08:34:24.512Z,25.09
2018-06-09T08:35:34.047Z,25.17
2018-06-09T08:36:42.925Z,25.15
2018-06-09T08:37:51.811Z,25.18
2018-06-09T08:39:00.975Z,25.21
2018-06-09T08:40:09.847Z,25.32
2018-06-09T08:41:18.865Z,25.38
2018-06-09T08:42:27.737Z,25.3
2018-06-09T08:43:36.606Z,25.36
2018-06-09T08:44:45.476Z,25.38
2018-06-09T08:45:54.902Z,25.45
2018-06-09T08:47:03.771Z,25.51
2018-06-09T08:48:12.642Z,25.52
2018-06-09T08:49:21.512Z,25.51
2018-06-09T08:50:30.457Z,25.6
2018-06-09T08:51:39.320Z,25.61
2018-06-09T08:52:48.246Z,25.62
2018-06-09T08:53:57.112Z,25.77
2018-06-09T08:55:05.986Z,25.8
2018-06-09T08:56:15.135Z,25.88
2018-06-09T08:57:24.287Z,25.95
2018-06-09T08:58:33.481Z,25.88
2018-06-09T08:59:42.353Z,25.99
2018-06-09T09:00:51.225Z,26.01
2018-06-09T09:02:00.369Z,26.12
2018-06-09T09:03:09.271Z,26.17
2018-06-09T09:04:18.401Z,26.28
2018-06-09T09:05:27.277Z,26.17
2018-06-09T09:06:36.149Z,26.32
2018-06-09T09:07:45.298Z,26.32
2018-06-09T09:08:54.166Z,26.35
2018-06-09T09:10:03.385Z,26.44
2018-06-09T09:11:12.254Z,26.5
2018-06-09T09:12:21.125Z,26.54
2018-06-09T09:13:29.995Z,26.54
2018-06-09T09:14:38.863Z,26.67
2018-06-09T09:15:48.083Z,26.63
2018-06-09T09:16:56.951Z,26.6
2018-06-09T09:18:05.819Z,26.67
2018-06-09T09:19:14.688Z,26.69
2018-06-09T09:20:23.555Z,26.84
2018-06-09T09:21:32.423Z,26.87
2018-06-09T09:22:41.294Z,26.95
2018-06-09T09:23:50.163Z,26.82
2018-06-09T09:24:59.178Z,26.89
2018-06-09T09:26:08.048Z,26.95
2018-06-09T09:27:17.200Z,26.92
2018-06-09T09:28:26.152Z,26.92
2018-06-09T09:29:35.349Z,26.91
2018-06-09T09:30:44.409Z,26.88
2018-06-09T09:31:53.607Z,27.06
2018-06-09T09:33:02.626Z,27.12
2018-06-09T09:34:11.495Z,27.02
2018-06-09T09:35:20.644Z,27.03
2018-06-09T09:36:29.515Z,27.09
2018-06-09T09:37:38.659Z,27.12
2018-06-09T09:38:47.532Z,27.17
2018-06-09T09:39:56.412Z,27.19
2018-06-09T09:41:05.556Z,27.14
2018-06-09T09:42:14.424Z,27.17
2018-06-09T09:43:23.290Z,27.18
2018-06-09T09:44:32.157Z,27.17
2018-06-09T09:45:41.028Z,27.19
2018-06-09T09:46:49.896Z,27.17
2018-06-09T09:47:58.765Z,27.17
2018-06-09T09:49:07.636Z,27.17
2018-06-09T09:50:16.752Z,27.21
2018-06-09T09:51:25.624Z,27.31
2018-06-09T09:52:34.495Z,27.39
2018-06-09T09:53:43.363Z,27.28
2018-06-09T09:54:52.546Z,27.29
2018-06-09T09:56:01.383Z,27.19
2018-06-09T09:57:10.523Z,27.28
2018-06-09T09:58:19.390Z,27.43
2018-06-09T09:59:28.257Z,27.41
2018-06-09T10:00:37.407Z,27.44
2018-06-09T10:01:46.731Z,27.67
2018-06-09T10:02:55.601Z,27.67
2018-06-09T10:04:04.748Z,27.77
2018-06-09T10:05:13.616Z,27.72
2018-06-09T10:06:22.485Z,27.72
2018-06-09T10:07:31.352Z,27.81
2018-06-09T10:08:40.240Z,27.75
2018-06-09T10:09:49.107Z,27.84
2018-06-09T10:10:57.976Z,27.81
2018-06-09T10:12:06.843Z,27.81
2018-06-09T10:13:15.711Z,27.88
2018-06-09T10:14:24.908Z,27.85
2018-06-09T10:15:33.728Z,27.9
2018-06-09T10:16:42.597Z,27.88
2018-06-09T10:17:51.464Z,28.03
2018-06-09T10:19:00.433Z,28.04
2018-06-09T10:20:09.301Z,28.3
2018-06-09T10:21:18.452Z,28.34
2018-06-09T10:22:27.322Z,28.41
2018-06-09T10:23:36.467Z,28.52
2018-06-09T10:24:45.588Z,28.31
2018-06-09T10:25:55.015Z,28.3
2018-06-09T10:27:04.166Z,28.36
2018-06-09T10:28:13.042Z,28.61
2018-06-09T10:29:21.905Z,28.48
2018-06-09T10:30:30.932Z,28.43
2018-06-09T10:31:40.448Z,28.46
2018-06-09T10:32:49.645Z,28.54
2018-06-09T10:33:58.484Z,28.55
2018-06-09T10:35:07.632Z,28.61
2018-06-09T10:36:16.651Z,28.76
2018-06-09T10:37:25.523Z,28.73
2018-06-09T10:38:34.408Z,28.81
2018-06-09T10:39:43.597Z,28.8
2018-06-09T10:40:52.466Z,28.85
2018-06-09T10:42:01.436Z,28.76
2018-06-09T10:43:10.307Z,28.89
2018-06-09T10:44:19.454Z,28.88
2018-06-09T10:45:28.324Z,29.04
2018-06-09T10:46:37.473Z,29.12
2018-06-09T10:47:46.493Z,29.18
2018-06-09T10:48:55.363Z,29.21
2018-06-09T10:50:04.516Z,29.3
2018-06-09T10:51:13.395Z,29.51
2018-06-09T10:52:22.258Z,29.42
2018-06-09T10:53:31.457Z,29.33
2018-06-09T10:54:40.328Z,29.34
2018-06-09T10:55:49.200Z,29.21
2018-06-09T10:56:58.346Z,29.16
2018-06-09T10:58:07.222Z,29.26
2018-06-09T10:59:16.468Z,29.51
2018-06-09T11:00:25.347Z,29.55
2018-06-09T11:01:34.501Z,29.68
2018-06-09T11:02:43.649Z,29.8
2018-06-09T11:03:52.796Z,29.87
2018-06-09T11:05:01.718Z,29.98
2018-06-09T11:06:10.873Z,30.11
2018-06-09T11:07:19.744Z,30.23
2018-06-09T11:08:28.615Z,30.2
2018-06-09T11:09:37.487Z,30.35
2018-06-09T11:10:46.458Z,30.35
2018-06-09T11:11:55.611Z,30.46
2018-06-09T11:13:04.483Z,30.38
2018-06-09T11:14:13.352Z,30.53
2018-06-09T11:15:22.222Z,30.55
2018-06-09T11:16:31.094Z,30.64
2018-06-09T11:17:39.964Z,30.7
2018-06-09T11:18:49.107Z,30.83
2018-06-09T11:19:57.975Z,30.92
2018-06-09T11:21:07.408Z,31.01
2018-06-09T11:22:16.477Z,30.88
2018-06-09T11:23:25.348Z,30.84
2018-06-09T11:24:34.591Z,30.88
2018-06-09T11:25:43.471Z,30.8
2018-06-09T11:26:52.342Z,30.84
2018-06-09T11:28:01.213Z,30.89
2018-06-09T11:29:10.369Z,30.91
2018-06-09T11:30:19.524Z,30.99
2018-06-09T11:31:28.952Z,30.99
2018-06-09T11:32:37.823Z,31.13
2018-06-09T11:33:46.750Z,31.16
2018-06-09T11:34:55.622Z,31.12
2018-06-09T11:36:04.500Z,31.12
2018-06-09T11:37:13.656Z,31.13
2018-06-09T11:38:22.527Z,31.2
2018-06-09T11:39:31.410Z,31.13
2018-06-09T11:40:40.275Z,31.17
2018-06-09T11:41:49.147Z,31.34
2018-06-09T11:42:58.019Z,31.34
2018-06-09T11:44:06.890Z,31.36
2018-06-09T11:45:16.398Z,31.28
2018-06-09T11:46:25.548Z,31.38
2018-06-09T11:47:34.419Z,31.54
2018-06-09T11:48:43.293Z,31.62
2018-06-09T11:49:52.164Z,31.73
2018-06-09T11:51:01.415Z,31.68
2018-06-09T11:52:10.287Z,31.68
2018-06-09T11:53:19.440Z,31.66
2018-06-09T11:54:28.311Z,31.68
2018-06-09T11:55:37.460Z,31.69
2018-06-09T11:56:46.332Z,31.68
2018-06-09T11:57:55.205Z,31.68
2018-06-09T11:59:04.077Z,31.68
2018-06-09T12:00:13.239Z,31.68
2018-06-09T12:01:22.387Z,31.65
2018-06-09T12:02:31.410Z,31.66
2018-06-09T12:03:40.566Z,31.72
2018-06-09T12:04:49.995Z,31.8
2018-06-09T12:05:58.869Z,31.69
2018-06-09T12:07:07.747Z,31.85
2018-06-09T12:08:16.619Z,31.81
2018-06-09T12:09:25.490Z,32
2018-06-09T12:10:34.363Z,32.18
2018-06-09T12:11:43.253Z,32.28
2018-06-09T12:12:52.406Z,32.47
2018-06-09T12:14:01.331Z,32.81
2018-06-09T12:15:10.215Z,32.94
2018-06-09T12:16:19.092Z,33.06
2018-06-09T12:17:28.068Z,33.21
2018-06-09T12:18:36.942Z,33.16
2018-06-09T12:19:45.920Z,33.23
2018-06-09T12:20:54.798Z,33.09
2018-06-09T12:22:03.675Z,33.21
2018-06-09T12:23:12.550Z,33.37
2018-06-09T12:24:21.427Z,33.49
2018-06-09T12:25:30.404Z,33.53
2018-06-09T12:26:39.281Z,33.53
2018-06-09T12:27:48.168Z,33.71
2018-06-09T12:28:57.322Z,33.9
2018-06-09T12:30:06.199Z,33.97
2018-06-09T12:31:15.128Z,34.03
2018-06-09T12:32:24.011Z,33.91
2018-06-09T12:33:33.168Z,33.86
2018-06-09T12:34:42.046Z,33.9
2018-06-09T12:35:50.925Z,33.88
2018-06-09T12:37:00.154Z,33.63
2018-06-09T12:38:09.032Z,33.59
2018-06-09T12:39:17.970Z,33.72
2018-06-09T12:40:27.184Z,33.79
2018-06-09T12:41:36.062Z,33.82
2018-06-09T12:42:44.939Z,33.98
2018-06-09T12:43:53.829Z,33.95
2018-06-09T12:45:02.981Z,33.88
2018-06-09T12:46:12.418Z,33.86
2018-06-09T12:47:21.296Z,33.87
2018-06-09T12:48:30.231Z,33.84
2018-06-09T12:49:39.393Z,33.97
2018-06-09T12:50:48.270Z,33.97
2018-06-09T12:51:57.150Z,33.93
2018-06-09T12:53:06.033Z,34
2018-06-09T12:54:15.016Z,34.03
2018-06-09T12:55:23.888Z,34
2018-06-09T12:56:32.764Z,33.98
2018-06-09T12:57:41.642Z,33.87
2018-06-09T12:58:50.520Z,33.87
2018-06-09T12:59:59.399Z,33.9
2018-06-09T13:01:08.280Z,33.78
2018-06-09T13:02:17.436Z,33.86
2018-06-09T13:03:26.589Z,33.81
2018-06-09T13:04:35.466Z,33.82
2018-06-09T13:05:44.419Z,33.81
2018-06-09T13:06:53.939Z,33.79
2018-06-09T13:08:02.814Z,33.94
2018-06-09T13:09:11.695Z,34
2018-06-09T13:10:20.569Z,34.08
2018-06-09T13:11:29.762Z,33.98
2018-06-09T13:12:38.916Z,33.98
2018-06-09T13:13:47.793Z,33.97
2018-06-09T13:14:56.669Z,33.81
2018-06-09T13:16:05.547Z,33.72
2018-06-09T13:17:14.775Z,33.56
2018-06-09T13:18:23.657Z,33.6
2018-06-09T13:19:32.545Z,33.6
2018-06-09T13:20:41.416Z,33.6
2018-06-09T13:21:50.298Z,33.76
2018-06-09T13:22:59.508Z,33.66
2018-06-09T13:24:08.389Z,33.79
2018-06-09T13:25:17.267Z,33.98
2018-06-09T13:26:26.143Z,34.06
2018-06-09T13:27:35.021Z,34.22
2018-06-09T13:28:44.331Z,34.27
2018-06-09T13:29:53.484Z,34.32
2018-06-09T13:31:02.363Z,34.52
2018-06-09T13:32:11.242Z,34.62
2018-06-09T13:33:20.395Z,34.73
2018-06-09T13:34:29.275Z,34.73
2018-06-09T13:35:38.155Z,34.87
2018-06-09T13:36:47.035Z,34.8
2018-06-09T13:37:55.915Z,34.88
2018-06-09T13:39:05.074Z,35.04
2018-06-09T13:40:14.346Z,35.06
2018-06-09T13:41:23.290Z,35.19
2018-06-09T13:42:32.473Z,35.25
2018-06-09T13:43:41.353Z,35.41
2018-06-09T13:44:50.236Z,35.5
2018-06-09T13:45:59.495Z,35.55
2018-06-09T13:47:08.377Z,35.6
2018-06-09T13:48:17.261Z,35.77
2018-06-09T13:49:26.147Z,36.05
2018-06-09T13:50:35.028Z,35.87
2018-06-09T13:51:44.260Z,35.85
2018-06-09T13:52:53.143Z,35.62
2018-06-09T13:54:02.027Z,35.84
2018-06-09T13:55:11.190Z,35.81
2018-06-09T13:56:20.072Z,36.17
2018-06-09T13:57:29.307Z,35.89
2018-06-09T13:58:38.186Z,36.01
2018-06-09T13:59:47.069Z,36.19
2018-06-09T14:00:55.953Z,36.31
2018-06-09T14:02:04.838Z,36.39
2018-06-09T14:03:14.099Z,36.51
2018-06-09T14:04:22.979Z,36.83
2018-06-09T14:05:31.862Z,36.85
2018-06-09T14:06:40.744Z,36.9
2018-06-09T14:07:49.627Z,36.93
2018-06-09T14:08:58.961Z,37.07
2018-06-09T14:10:07.847Z,37.12
2018-06-09T14:11:17.017Z,37.17
2018-06-09T14:12:25.895Z,37.2
2018-06-09T14:13:35.056Z,37.37
2018-06-09T14:14:44.268Z,37.5
2018-06-09T14:15:53.153Z,37.51
2018-06-09T14:17:02.321Z,37.63
2018-06-09T14:18:11.207Z,37.5
2018-06-09T14:19:20.367Z,37.46
2018-06-09T14:20:29.250Z,37.5
2018-06-09T14:21:38.413Z,37.32
2018-06-09T14:22:47.580Z,37.25
2018-06-09T14:23:56.464Z,37.32
2018-06-09T14:25:05.628Z,37.31
2018-06-09T14:26:15.240Z,37.09
2018-06-09T14:27:24.144Z,36.85
2018-06-09T14:28:33.306Z,36.88
2018-06-09T14:29:42.190Z,36.83
2018-06-09T14:30:51.075Z,36.69
2018-06-09T14:31:59.957Z,36.76
2018-06-09T14:33:08.841Z,36.88
2018-06-09T14:34:17.723Z,36.93
2018-06-09T14:35:26.610Z,36.87
2018-06-09T14:36:35.495Z,36.95
2018-06-09T14:37:44.529Z,37.05
2018-06-09T14:38:53.835Z,37.24
2018-06-09T14:40:02.653Z,37.27
2018-06-09T14:41:11.535Z,37.24
2018-06-09T14:42:20.415Z,37.49
2018-06-09T14:43:29.399Z,37.43
2018-06-09T14:44:38.287Z,37.34
2018-06-09T14:45:47.181Z,37.34
2018-06-09T14:46:56.342Z,37.06
2018-06-09T14:48:05.226Z,37.09
2018-06-09T14:49:14.108Z,37.2
2018-06-09T14:50:22.992Z,37.29
2018-06-09T14:51:31.876Z,37.22
2018-06-09T14:52:40.767Z,37.29